sensor_id;sensor_type;location;lat;lon;timestamp;P1;durP1;ratioP1;P2;durP2;ratioP2
69030;SDS011;56083;48.774;8.942;2024-03-02T00:00:14;17.98;;;9.88;;
69030;SDS011;56083;48.774;8.942;2024-03-02T00:02:40;17.15;;;9.65;;
69030;SDS011;56083;48.774;8.942;2024-03-02T00:05:07;16.25;;;9.30;;
69030;SDS011;56083;48.774;8.942;2024-03-02T00:07:33;13.65;;;9.27;;
69030;SDS011;56083;48.774;8.942;2024-03-02T00:09:59;14.68;;;9.77;;
69030;SDS011;56083;48.774;8.942;2024-03-02T00:12:25;15.90;;;10.13;;
69030;SDS011;56083;48.774;8.942;2024-03-02T00:14:51;18.55;;;10.00;;
69030;SDS011;56083;48.774;8.942;2024-03-02T00:17:17;16.98;;;10.95;;
69030;SDS011;56083;48.774;8.942;2024-03-02T00:19:46;16.88;;;10.75;;
69030;SDS011;56083;48.774;8.942;2024-03-02T00:22:12;19.30;;;11.68;;
69030;SDS011;56083;48.774;8.942;2024-03-02T00:24:40;20.15;;;11.27;;
69030;SDS011;56083;48.774;8.942;2024-03-02T00:27:06;19.48;;;11.18;;
69030;SDS011;56083;48.774;8.942;2024-03-02T00:29:36;22.90;;;12.30;;
69030;SDS011;56083;48.774;8.942;2024-03-02T00:32:03;19.42;;;11.68;;
69030;SDS011;56083;48.774;8.942;2024-03-02T00:34:29;19.02;;;11.15;;
69030;SDS011;56083;48.774;8.942;2024-03-02T00:36:57;20.42;;;11.80;;
69030;SDS011;56083;48.774;8.942;2024-03-02T00:39:24;19.45;;;12.52;;
69030;SDS011;56083;48.774;8.942;2024-03-02T00:41:50;22.13;;;12.80;;
69030;SDS011;56083;48.774;8.942;2024-03-02T00:44:16;25.60;;;13.48;;
69030;SDS011;56083;48.774;8.942;2024-03-02T00:46:45;21.92;;;13.02;;
69030;SDS011;56083;48.774;8.942;2024-03-02T00:49:16;22.08;;;13.40;;
69030;SDS011;56083;48.774;8.942;2024-03-02T00:51:45;21.95;;;13.75;;
69030;SDS011;56083;48.774;8.942;2024-03-02T00:54:13;22.50;;;13.48;;
69030;SDS011;56083;48.774;8.942;2024-03-02T00:56:39;25.48;;;14.82;;
69030;SDS011;56083;48.774;8.942;2024-03-02T00:59:07;27.13;;;15.60;;
69030;SDS011;56083;48.774;8.942;2024-03-02T01:01:34;30.00;;;16.83;;
69030;SDS011;56083;48.774;8.942;2024-03-02T01:04:00;29.00;;;17.42;;
69030;SDS011;56083;48.774;8.942;2024-03-02T01:06:26;31.10;;;18.35;;
69030;SDS011;56083;48.774;8.942;2024-03-02T01:08:52;30.58;;;17.75;;
69030;SDS011;56083;48.774;8.942;2024-03-02T01:11:19;31.00;;;18.13;;
69030;SDS011;56083;48.774;8.942;2024-03-02T01:13:46;32.20;;;19.45;;
69030;SDS011;56083;48.774;8.942;2024-03-02T01:16:13;34.03;;;20.25;;
69030;SDS011;56083;48.774;8.942;2024-03-02T01:18:40;36.67;;;21.13;;
69030;SDS011;56083;48.774;8.942;2024-03-02T01:21:06;38.67;;;20.55;;
69030;SDS011;56083;48.774;8.942;2024-03-02T01:23:32;36.67;;;21.48;;
69030;SDS011;56083;48.774;8.942;2024-03-02T01:25:58;42.60;;;21.95;;
69030;SDS011;56083;48.774;8.942;2024-03-02T01:28:24;36.25;;;20.85;;
69030;SDS011;56083;48.774;8.942;2024-03-02T01:30:50;33.63;;;19.17;;
69030;SDS011;56083;48.774;8.942;2024-03-02T01:33:17;36.28;;;20.00;;
69030;SDS011;56083;48.774;8.942;2024-03-02T01:35:43;33.03;;;20.92;;
69030;SDS011;56083;48.774;8.942;2024-03-02T01:38:09;36.35;;;21.23;;
69030;SDS011;56083;48.774;8.942;2024-03-02T01:40:36;34.28;;;21.30;;
69030;SDS011;56083;48.774;8.942;2024-03-02T01:43:03;37.67;;;21.73;;
69030;SDS011;56083;48.774;8.942;2024-03-02T01:45:29;38.85;;;22.88;;
69030;SDS011;56083;48.774;8.942;2024-03-02T01:47:55;39.85;;;21.45;;
69030;SDS011;56083;48.774;8.942;2024-03-02T01:50:28;36.03;;;20.98;;
69030;SDS011;56083;48.774;8.942;2024-03-02T01:52:55;35.60;;;20.38;;
69030;SDS011;56083;48.774;8.942;2024-03-02T01:55:21;33.42;;;20.13;;
69030;SDS011;56083;48.774;8.942;2024-03-02T01:57:48;41.55;;;21.23;;
69030;SDS011;56083;48.774;8.942;2024-03-02T02:00:16;35.08;;;20.67;;
69030;SDS011;56083;48.774;8.942;2024-03-02T02:02:42;35.50;;;19.90;;
69030;SDS011;56083;48.774;8.942;2024-03-02T02:05:08;36.30;;;20.58;;
69030;SDS011;56083;48.774;8.942;2024-03-02T02:07:35;38.80;;;20.70;;
69030;SDS011;56083;48.774;8.942;2024-03-02T02:10:01;37.38;;;20.48;;
69030;SDS011;56083;48.774;8.942;2024-03-02T02:12:27;38.47;;;21.45;;
69030;SDS011;56083;48.774;8.942;2024-03-02T02:14:53;38.95;;;20.95;;
69030;SDS011;56083;48.774;8.942;2024-03-02T02:17:19;38.20;;;20.73;;
69030;SDS011;56083;48.774;8.942;2024-03-02T02:19:45;43.70;;;23.88;;
69030;SDS011;56083;48.774;8.942;2024-03-02T02:22:11;44.50;;;24.45;;
69030;SDS011;56083;48.774;8.942;2024-03-02T02:24:41;44.90;;;24.75;;
69030;SDS011;56083;48.774;8.942;2024-03-02T02:27:07;43.50;;;24.33;;
69030;SDS011;56083;48.774;8.942;2024-03-02T02:29:33;49.35;;;25.63;;
69030;SDS011;56083;48.774;8.942;2024-03-02T02:31:59;47.15;;;25.95;;
69030;SDS011;56083;48.774;8.942;2024-03-02T02:34:26;54.40;;;27.48;;
69030;SDS011;56083;48.774;8.942;2024-03-02T02:36:52;49.40;;;26.52;;
69030;SDS011;56083;48.774;8.942;2024-03-02T02:39:18;48.05;;;26.27;;
69030;SDS011;56083;48.774;8.942;2024-03-02T02:41:45;46.05;;;24.45;;
69030;SDS011;56083;48.774;8.942;2024-03-02T02:44:11;47.55;;;24.88;;
69030;SDS011;56083;48.774;8.942;2024-03-02T02:46:38;50.95;;;26.50;;
69030;SDS011;56083;48.774;8.942;2024-03-02T02:49:04;52.92;;;27.23;;
69030;SDS011;56083;48.774;8.942;2024-03-02T02:51:30;59.45;;;29.70;;
69030;SDS011;56083;48.774;8.942;2024-03-02T02:53:56;59.90;;;29.77;;
69030;SDS011;56083;48.774;8.942;2024-03-02T02:56:22;62.30;;;29.85;;
69030;SDS011;56083;48.774;8.942;2024-03-02T02:58:48;54.97;;;29.33;;
69030;SDS011;56083;48.774;8.942;2024-03-02T03:01:15;57.88;;;29.50;;
69030;SDS011;56083;48.774;8.942;2024-03-02T03:03:44;57.83;;;27.83;;
69030;SDS011;56083;48.774;8.942;2024-03-02T03:06:10;57.85;;;29.65;;
69030;SDS011;56083;48.774;8.942;2024-03-02T03:08:36;61.10;;;29.30;;
69030;SDS011;56083;48.774;8.942;2024-03-02T03:11:03;60.97;;;29.23;;
69030;SDS011;56083;48.774;8.942;2024-03-02T03:13:29;60.25;;;30.42;;
69030;SDS011;56083;48.774;8.942;2024-03-02T03:15:55;57.58;;;30.17;;
69030;SDS011;56083;48.774;8.942;2024-03-02T03:18:21;57.83;;;30.13;;
69030;SDS011;56083;48.774;8.942;2024-03-02T03:20:47;60.72;;;29.52;;
69030;SDS011;56083;48.774;8.942;2024-03-02T03:23:13;60.38;;;28.75;;
69030;SDS011;56083;48.774;8.942;2024-03-02T03:25:41;61.33;;;30.45;;
69030;SDS011;56083;48.774;8.942;2024-03-02T03:28:07;58.65;;;29.80;;
69030;SDS011;56083;48.774;8.942;2024-03-02T03:30:36;64.80;;;31.38;;
69030;SDS011;56083;48.774;8.942;2024-03-02T03:33:02;60.65;;;28.50;;
69030;SDS011;56083;48.774;8.942;2024-03-02T03:35:28;60.40;;;30.02;;
69030;SDS011;56083;48.774;8.942;2024-03-02T03:37:54;61.72;;;31.15;;
69030;SDS011;56083;48.774;8.942;2024-03-02T03:40:20;63.55;;;30.92;;
69030;SDS011;56083;48.774;8.942;2024-03-02T03:42:46;69.28;;;32.05;;
69030;SDS011;56083;48.774;8.942;2024-03-02T03:45:13;68.28;;;32.97;;
69030;SDS011;56083;48.774;8.942;2024-03-02T03:47:40;66.88;;;32.83;;
69030;SDS011;56083;48.774;8.942;2024-03-02T03:50:06;71.07;;;34.00;;
69030;SDS011;56083;48.774;8.942;2024-03-02T03:52:32;72.47;;;33.80;;
69030;SDS011;56083;48.774;8.942;2024-03-02T03:54:58;64.32;;;31.13;;
69030;SDS011;56083;48.774;8.942;2024-03-02T03:57:25;67.82;;;30.67;;
69030;SDS011;56083;48.774;8.942;2024-03-02T03:59:51;71.18;;;33.40;;
69030;SDS011;56083;48.774;8.942;2024-03-02T04:02:17;68.50;;;31.73;;
69030;SDS011;56083;48.774;8.942;2024-03-02T04:04:43;68.97;;;32.97;;
69030;SDS011;56083;48.774;8.942;2024-03-02T04:07:09;64.63;;;31.30;;
69030;SDS011;56083;48.774;8.942;2024-03-02T04:09:35;65.13;;;30.67;;
69030;SDS011;56083;48.774;8.942;2024-03-02T04:12:01;66.20;;;30.95;;
69030;SDS011;56083;48.774;8.942;2024-03-02T04:14:27;72.10;;;32.65;;
69030;SDS011;56083;48.774;8.942;2024-03-02T04:16:53;74.68;;;34.10;;
69030;SDS011;56083;48.774;8.942;2024-03-02T04:19:19;70.15;;;34.17;;
69030;SDS011;56083;48.774;8.942;2024-03-02T04:21:45;70.78;;;34.05;;
69030;SDS011;56083;48.774;8.942;2024-03-02T04:24:11;80.13;;;35.28;;
69030;SDS011;56083;48.774;8.942;2024-03-02T04:26:37;83.45;;;35.70;;
69030;SDS011;56083;48.774;8.942;2024-03-02T04:29:04;71.95;;;33.75;;
69030;SDS011;56083;48.774;8.942;2024-03-02T04:31:30;75.00;;;33.15;;
69030;SDS011;56083;48.774;8.942;2024-03-02T04:33:56;74.65;;;34.45;;
69030;SDS011;56083;48.774;8.942;2024-03-02T04:36:22;77.72;;;34.67;;
69030;SDS011;56083;48.774;8.942;2024-03-02T04:38:48;75.70;;;34.65;;
69030;SDS011;56083;48.774;8.942;2024-03-02T04:41:14;78.82;;;35.67;;
69030;SDS011;56083;48.774;8.942;2024-03-02T04:43:40;87.25;;;35.40;;
69030;SDS011;56083;48.774;8.942;2024-03-02T04:46:06;84.07;;;35.72;;
69030;SDS011;56083;48.774;8.942;2024-03-02T04:48:33;82.55;;;36.67;;
69030;SDS011;56083;48.774;8.942;2024-03-02T04:50:59;76.05;;;35.33;;
69030;SDS011;56083;48.774;8.942;2024-03-02T04:53:25;81.53;;;35.75;;
69030;SDS011;56083;48.774;8.942;2024-03-02T04:55:51;83.82;;;36.33;;
69030;SDS011;56083;48.774;8.942;2024-03-02T04:58:20;85.85;;;35.28;;
69030;SDS011;56083;48.774;8.942;2024-03-02T05:00:46;82.63;;;36.15;;
69030;SDS011;56083;48.774;8.942;2024-03-02T05:03:12;79.78;;;35.83;;
69030;SDS011;56083;48.774;8.942;2024-03-02T05:05:38;92.10;;;37.40;;
69030;SDS011;56083;48.774;8.942;2024-03-02T05:08:04;84.22;;;36.08;;
69030;SDS011;56083;48.774;8.942;2024-03-02T05:10:31;86.30;;;37.33;;
69030;SDS011;56083;48.774;8.942;2024-03-02T05:12:57;86.97;;;37.10;;
69030;SDS011;56083;48.774;8.942;2024-03-02T05:15:24;86.13;;;36.38;;
69030;SDS011;56083;48.774;8.942;2024-03-02T05:17:50;83.18;;;36.08;;
69030;SDS011;56083;48.774;8.942;2024-03-02T05:20:16;81.32;;;35.78;;
69030;SDS011;56083;48.774;8.942;2024-03-02T05:22:42;84.78;;;35.75;;
69030;SDS011;56083;48.774;8.942;2024-03-02T05:25:09;83.07;;;35.85;;
69030;SDS011;56083;48.774;8.942;2024-03-02T05:27:35;83.05;;;34.85;;
69030;SDS011;56083;48.774;8.942;2024-03-02T05:30:02;82.25;;;35.25;;
69030;SDS011;56083;48.774;8.942;2024-03-02T05:32:28;79.20;;;35.10;;
69030;SDS011;56083;48.774;8.942;2024-03-02T05:34:54;78.22;;;34.95;;
69030;SDS011;56083;48.774;8.942;2024-03-02T05:37:20;82.05;;;35.78;;
69030;SDS011;56083;48.774;8.942;2024-03-02T05:39:46;87.47;;;36.83;;
69030;SDS011;56083;48.774;8.942;2024-03-02T05:42:12;84.55;;;35.47;;
69030;SDS011;56083;48.774;8.942;2024-03-02T05:44:38;76.97;;;32.92;;
69030;SDS011;56083;48.774;8.942;2024-03-02T05:47:04;84.25;;;35.80;;
69030;SDS011;56083;48.774;8.942;2024-03-02T05:49:33;90.32;;;37.10;;
69030;SDS011;56083;48.774;8.942;2024-03-02T05:51:59;81.82;;;35.53;;
69030;SDS011;56083;48.774;8.942;2024-03-02T05:54:25;81.95;;;35.45;;
69030;SDS011;56083;48.774;8.942;2024-03-02T05:56:51;82.85;;;36.20;;
69030;SDS011;56083;48.774;8.942;2024-03-02T05:59:17;87.15;;;35.70;;
69030;SDS011;56083;48.774;8.942;2024-03-02T06:01:43;84.30;;;35.80;;
69030;SDS011;56083;48.774;8.942;2024-03-02T06:04:11;83.70;;;36.60;;
69030;SDS011;56083;48.774;8.942;2024-03-02T06:06:37;95.30;;;38.35;;
69030;SDS011;56083;48.774;8.942;2024-03-02T06:09:04;93.03;;;38.13;;
69030;SDS011;56083;48.774;8.942;2024-03-02T06:11:32;94.53;;;38.88;;
69030;SDS011;56083;48.774;8.942;2024-03-02T06:13:58;94.28;;;40.08;;
69030;SDS011;56083;48.774;8.942;2024-03-02T06:16:24;100.95;;;39.30;;
69030;SDS011;56083;48.774;8.942;2024-03-02T06:18:50;94.25;;;38.15;;
69030;SDS011;56083;48.774;8.942;2024-03-02T06:21:20;93.43;;;38.33;;
69030;SDS011;56083;48.774;8.942;2024-03-02T06:23:46;92.55;;;39.47;;
69030;SDS011;56083;48.774;8.942;2024-03-02T06:26:12;90.03;;;37.75;;
69030;SDS011;56083;48.774;8.942;2024-03-02T06:28:38;90.20;;;37.55;;
69030;SDS011;56083;48.774;8.942;2024-03-02T06:31:04;93.70;;;39.72;;
69030;SDS011;56083;48.774;8.942;2024-03-02T06:33:30;89.63;;;37.53;;
69030;SDS011;56083;48.774;8.942;2024-03-02T06:35:56;91.53;;;36.35;;
69030;SDS011;56083;48.774;8.942;2024-03-02T06:38:22;86.13;;;36.58;;
69030;SDS011;56083;48.774;8.942;2024-03-02T06:40:48;84.28;;;37.08;;
69030;SDS011;56083;48.774;8.942;2024-03-02T06:43:14;78.20;;;35.53;;
69030;SDS011;56083;48.774;8.942;2024-03-02T06:45:42;87.78;;;37.63;;
69030;SDS011;56083;48.774;8.942;2024-03-02T06:48:08;82.07;;;35.22;;
69030;SDS011;56083;48.774;8.942;2024-03-02T06:50:34;88.80;;;37.00;;
69030;SDS011;56083;48.774;8.942;2024-03-02T06:53:00;81.85;;;37.45;;
69030;SDS011;56083;48.774;8.942;2024-03-02T06:55:29;83.75;;;37.67;;
69030;SDS011;56083;48.774;8.942;2024-03-02T06:57:55;88.97;;;38.83;;
69030;SDS011;56083;48.774;8.942;2024-03-02T07:00:23;84.43;;;38.45;;
69030;SDS011;56083;48.774;8.942;2024-03-02T07:02:49;85.35;;;39.25;;
69030;SDS011;56083;48.774;8.942;2024-03-02T07:05:16;79.88;;;35.92;;
69030;SDS011;56083;48.774;8.942;2024-03-02T07:07:42;60.25;;;31.80;;
69030;SDS011;56083;48.774;8.942;2024-03-02T07:10:08;56.08;;;31.33;;
69030;SDS011;56083;48.774;8.942;2024-03-02T07:12:34;49.40;;;28.80;;
69030;SDS011;56083;48.774;8.942;2024-03-02T07:15:00;50.17;;;29.67;;
69030;SDS011;56083;48.774;8.942;2024-03-02T07:17:31;52.97;;;30.52;;
69030;SDS011;56083;48.774;8.942;2024-03-02T07:19:57;49.95;;;29.92;;
69030;SDS011;56083;48.774;8.942;2024-03-02T07:22:23;46.63;;;28.05;;
69030;SDS011;56083;48.774;8.942;2024-03-02T07:24:49;46.80;;;27.55;;
69030;SDS011;56083;48.774;8.942;2024-03-02T07:27:16;42.92;;;25.38;;
69030;SDS011;56083;48.774;8.942;2024-03-02T07:29:42;43.60;;;25.17;;
69030;SDS011;56083;48.774;8.942;2024-03-02T07:32:08;44.17;;;25.40;;
69030;SDS011;56083;48.774;8.942;2024-03-02T07:34:35;40.97;;;24.90;;
69030;SDS011;56083;48.774;8.942;2024-03-02T07:37:01;44.63;;;25.13;;
69030;SDS011;56083;48.774;8.942;2024-03-02T07:39:27;42.15;;;24.13;;
69030;SDS011;56083;48.774;8.942;2024-03-02T07:41:54;46.95;;;26.38;;
69030;SDS011;56083;48.774;8.942;2024-03-02T07:44:20;42.53;;;24.95;;
69030;SDS011;56083;48.774;8.942;2024-03-02T07:46:46;46.00;;;25.48;;
69030;SDS011;56083;48.774;8.942;2024-03-02T07:49:14;44.25;;;25.35;;
69030;SDS011;56083;48.774;8.942;2024-03-02T07:51:40;43.03;;;25.92;;
69030;SDS011;56083;48.774;8.942;2024-03-02T07:54:06;41.17;;;23.60;;
69030;SDS011;56083;48.774;8.942;2024-03-02T07:56:32;37.28;;;22.45;;
69030;SDS011;56083;48.774;8.942;2024-03-02T07:58:58;38.60;;;22.08;;
69030;SDS011;56083;48.774;8.942;2024-03-02T08:01:29;34.92;;;21.77;;
69030;SDS011;56083;48.774;8.942;2024-03-02T08:03:56;32.90;;;21.05;;
69030;SDS011;56083;48.774;8.942;2024-03-02T08:06:23;26.98;;;17.65;;
69030;SDS011;56083;48.774;8.942;2024-03-02T08:08:52;23.73;;;15.98;;
69030;SDS011;56083;48.774;8.942;2024-03-02T08:11:18;25.13;;;15.30;;
69030;SDS011;56083;48.774;8.942;2024-03-02T08:13:44;19.23;;;12.95;;
69030;SDS011;56083;48.774;8.942;2024-03-02T08:16:10;17.85;;;13.30;;
69030;SDS011;56083;48.774;8.942;2024-03-02T08:18:36;16.38;;;11.38;;
69030;SDS011;56083;48.774;8.942;2024-03-02T08:21:02;15.10;;;11.55;;
69030;SDS011;56083;48.774;8.942;2024-03-02T08:23:28;19.98;;;13.50;;
69030;SDS011;56083;48.774;8.942;2024-03-02T08:25:55;15.05;;;11.48;;
69030;SDS011;56083;48.774;8.942;2024-03-02T08:28:21;17.83;;;12.32;;
69030;SDS011;56083;48.774;8.942;2024-03-02T08:30:47;15.45;;;11.63;;
69030;SDS011;56083;48.774;8.942;2024-03-02T08:33:13;18.60;;;11.02;;
69030;SDS011;56083;48.774;8.942;2024-03-02T08:35:39;14.02;;;10.57;;
69030;SDS011;56083;48.774;8.942;2024-03-02T08:38:05;15.77;;;10.95;;
69030;SDS011;56083;48.774;8.942;2024-03-02T08:40:31;13.80;;;9.52;;
69030;SDS011;56083;48.774;8.942;2024-03-02T08:42:57;13.43;;;9.85;;
69030;SDS011;56083;48.774;8.942;2024-03-02T08:45:23;12.15;;;9.80;;
69030;SDS011;56083;48.774;8.942;2024-03-02T08:47:49;14.30;;;9.60;;
69030;SDS011;56083;48.774;8.942;2024-03-02T08:50:15;12.88;;;8.48;;
69030;SDS011;56083;48.774;8.942;2024-03-02T08:52:41;9.52;;;8.02;;
69030;SDS011;56083;48.774;8.942;2024-03-02T08:55:08;14.77;;;8.50;;
69030;SDS011;56083;48.774;8.942;2024-03-02T08:57:36;9.63;;;7.60;;
69030;SDS011;56083;48.774;8.942;2024-03-02T09:00:02;10.70;;;7.47;;
69030;SDS011;56083;48.774;8.942;2024-03-02T09:02:30;10.52;;;7.20;;
69030;SDS011;56083;48.774;8.942;2024-03-02T09:04:56;9.77;;;7.68;;
69030;SDS011;56083;48.774;8.942;2024-03-02T09:07:24;9.18;;;6.57;;
69030;SDS011;56083;48.774;8.942;2024-03-02T09:09:50;10.05;;;6.75;;
69030;SDS011;56083;48.774;8.942;2024-03-02T09:12:17;9.65;;;6.20;;
69030;SDS011;56083;48.774;8.942;2024-03-02T09:14:43;9.40;;;6.72;;
69030;SDS011;56083;48.774;8.942;2024-03-02T09:17:09;7.80;;;5.93;;
69030;SDS011;56083;48.774;8.942;2024-03-02T09:19:37;9.77;;;5.93;;
69030;SDS011;56083;48.774;8.942;2024-03-02T09:22:03;9.65;;;6.20;;
69030;SDS011;56083;48.774;8.942;2024-03-02T09:24:30;8.07;;;6.38;;
69030;SDS011;56083;48.774;8.942;2024-03-02T09:26:56;7.63;;;5.55;;
69030;SDS011;56083;48.774;8.942;2024-03-02T09:29:22;11.65;;;5.90;;
69030;SDS011;56083;48.774;8.942;2024-03-02T09:31:48;6.63;;;5.53;;
69030;SDS011;56083;48.774;8.942;2024-03-02T09:34:15;9.00;;;5.70;;
69030;SDS011;56083;48.774;8.942;2024-03-02T09:36:42;6.82;;;5.18;;
69030;SDS011;56083;48.774;8.942;2024-03-02T09:39:08;7.43;;;5.63;;
69030;SDS011;56083;48.774;8.942;2024-03-02T09:41:37;8.80;;;5.97;;
69030;SDS011;56083;48.774;8.942;2024-03-02T09:44:04;8.80;;;6.22;;
69030;SDS011;56083;48.774;8.942;2024-03-02T09:46:30;9.88;;;6.28;;
69030;SDS011;56083;48.774;8.942;2024-03-02T09:48:56;9.38;;;5.75;;
69030;SDS011;56083;48.774;8.942;2024-03-02T09:51:23;9.98;;;6.30;;
69030;SDS011;56083;48.774;8.942;2024-03-02T09:53:49;10.07;;;5.80;;
69030;SDS011;56083;48.774;8.942;2024-03-02T09:56:15;7.78;;;5.10;;
69030;SDS011;56083;48.774;8.942;2024-03-02T09:58:41;6.25;;;4.78;;
69030;SDS011;56083;48.774;8.942;2024-03-02T10:01:08;6.93;;;4.82;;
69030;SDS011;56083;48.774;8.942;2024-03-02T10:03:37;12.52;;;4.70;;
69030;SDS011;56083;48.774;8.942;2024-03-02T10:06:23;6.88;;;5.47;;
69030;SDS011;56083;48.774;8.942;2024-03-02T10:08:49;6.55;;;4.85;;
69030;SDS011;56083;48.774;8.942;2024-03-02T10:11:31;5.78;;;4.75;;
69030;SDS011;56083;48.774;8.942;2024-03-02T10:14:08;6.15;;;4.35;;
69030;SDS011;56083;48.774;8.942;2024-03-02T10:16:44;5.85;;;4.13;;
69030;SDS011;56083;48.774;8.942;2024-03-02T10:21:45;4.28;;;3.88;;
69030;SDS011;56083;48.774;8.942;2024-03-02T10:24:11;5.35;;;3.85;;
69030;SDS011;56083;48.774;8.942;2024-03-02T10:26:38;5.70;;;4.10;;
69030;SDS011;56083;48.774;8.942;2024-03-02T10:29:04;6.75;;;3.30;;
69030;SDS011;56083;48.774;8.942;2024-03-02T10:31:30;5.28;;;3.22;;
69030;SDS011;56083;48.774;8.942;2024-03-02T10:33:57;4.85;;;2.83;;
69030;SDS011;56083;48.774;8.942;2024-03-02T10:36:24;6.15;;;3.13;;
69030;SDS011;56083;48.774;8.942;2024-03-02T10:38:51;3.70;;;3.05;;
69030;SDS011;56083;48.774;8.942;2024-03-02T10:41:23;4.32;;;2.72;;
69030;SDS011;56083;48.774;8.942;2024-03-02T10:43:51;6.97;;;2.83;;
69030;SDS011;56083;48.774;8.942;2024-03-02T10:46:24;6.85;;;2.55;;
69030;SDS011;56083;48.774;8.942;2024-03-02T10:48:52;2.45;;;2.20;;
69030;SDS011;56083;48.774;8.942;2024-03-02T10:51:18;3.05;;;2.10;;
69030;SDS011;56083;48.774;8.942;2024-03-02T10:53:44;3.17;;;2.13;;
69030;SDS011;56083;48.774;8.942;2024-03-02T10:56:10;3.03;;;2.10;;
69030;SDS011;56083;48.774;8.942;2024-03-02T10:58:41;5.00;;;2.17;;
69030;SDS011;56083;48.774;8.942;2024-03-02T11:01:07;4.07;;;2.13;;
69030;SDS011;56083;48.774;8.942;2024-03-02T11:03:35;5.03;;;2.13;;
69030;SDS011;56083;48.774;8.942;2024-03-02T11:06:05;6.15;;;1.90;;
69030;SDS011;56083;48.774;8.942;2024-03-02T11:08:33;3.95;;;1.60;;
69030;SDS011;56083;48.774;8.942;2024-03-02T11:11:03;1.60;;;1.38;;
69030;SDS011;56083;48.774;8.942;2024-03-02T11:13:31;2.42;;;1.33;;
69030;SDS011;56083;48.774;8.942;2024-03-02T11:16:05;2.17;;;1.10;;
69030;SDS011;56083;48.774;8.942;2024-03-02T11:18:31;2.05;;;1.00;;
69030;SDS011;56083;48.774;8.942;2024-03-02T11:20:58;3.70;;;0.95;;
69030;SDS011;56083;48.774;8.942;2024-03-02T11:23:31;2.33;;;1.20;;
69030;SDS011;56083;48.774;8.942;2024-03-02T11:28:44;0.98;;;0.80;;
69030;SDS011;56083;48.774;8.942;2024-03-02T11:31:10;1.00;;;0.73;;
69030;SDS011;56083;48.774;8.942;2024-03-02T11:33:36;1.02;;;0.77;;
69030;SDS011;56083;48.774;8.942;2024-03-02T11:36:03;0.93;;;0.75;;
69030;SDS011;56083;48.774;8.942;2024-03-02T11:38:30;0.60;;;0.50;;
69030;SDS011;56083;48.774;8.942;2024-03-02T11:40:57;1.52;;;0.93;;
69030;SDS011;56083;48.774;8.942;2024-03-02T11:43:23;1.23;;;0.60;;
69030;SDS011;56083;48.774;8.942;2024-03-02T11:45:56;2.58;;;0.57;;
69030;SDS011;56083;48.774;8.942;2024-03-02T11:48:23;1.60;;;1.15;;
69030;SDS011;56083;48.774;8.942;2024-03-02T11:50:50;1.25;;;0.90;;
69030;SDS011;56083;48.774;8.942;2024-03-02T11:53:17;1.33;;;0.90;;
69030;SDS011;56083;48.774;8.942;2024-03-02T11:55:43;2.65;;;1.02;;
69030;SDS011;56083;48.774;8.942;2024-03-02T11:58:13;1.45;;;0.88;;
69030;SDS011;56083;48.774;8.942;2024-03-02T12:00:39;1.00;;;0.70;;
69030;SDS011;56083;48.774;8.942;2024-03-02T12:03:09;1.40;;;0.82;;
69030;SDS011;56083;48.774;8.942;2024-03-02T12:05:35;1.23;;;0.68;;
69030;SDS011;56083;48.774;8.942;2024-03-02T12:08:02;1.42;;;0.80;;
69030;SDS011;56083;48.774;8.942;2024-03-02T12:10:29;2.45;;;0.90;;
69030;SDS011;56083;48.774;8.942;2024-03-02T12:12:56;2.78;;;0.80;;
69030;SDS011;56083;48.774;8.942;2024-03-02T12:15:32;1.67;;;0.60;;
69030;SDS011;56083;48.774;8.942;2024-03-02T12:17:59;1.17;;;0.70;;
69030;SDS011;56083;48.774;8.942;2024-03-02T12:20:27;1.00;;;0.60;;
69030;SDS011;56083;48.774;8.942;2024-03-02T12:22:54;0.93;;;0.60;;
69030;SDS011;56083;48.774;8.942;2024-03-02T12:25:21;0.80;;;0.60;;
69030;SDS011;56083;48.774;8.942;2024-03-02T12:27:49;1.23;;;0.65;;
69030;SDS011;56083;48.774;8.942;2024-03-02T12:30:18;1.27;;;0.52;;
69030;SDS011;56083;48.774;8.942;2024-03-02T12:32:45;1.10;;;0.80;;
69030;SDS011;56083;48.774;8.942;2024-03-02T12:35:11;0.65;;;0.35;;
69030;SDS011;56083;48.774;8.942;2024-03-02T12:37:50;0.45;;;0.40;;
69030;SDS011;56083;48.774;8.942;2024-03-02T12:40:16;0.55;;;0.50;;
69030;SDS011;56083;48.774;8.942;2024-03-02T12:42:43;0.60;;;0.40;;
69030;SDS011;56083;48.774;8.942;2024-03-02T12:45:09;1.00;;;0.50;;
69030;SDS011;56083;48.774;8.942;2024-03-02T12:47:36;0.93;;;0.30;;
69030;SDS011;56083;48.774;8.942;2024-03-02T12:50:03;1.45;;;0.50;;
69030;SDS011;56083;48.774;8.942;2024-03-02T12:52:29;1.15;;;0.68;;
69030;SDS011;56083;48.774;8.942;2024-03-02T12:54:57;0.38;;;0.32;;
69030;SDS011;56083;48.774;8.942;2024-03-02T12:57:26;0.52;;;0.50;;
69030;SDS011;56083;48.774;8.942;2024-03-02T13:00:00;0.60;;;0.50;;
69030;SDS011;56083;48.774;8.942;2024-03-02T13:02:30;1.45;;;0.55;;
69030;SDS011;56083;48.774;8.942;2024-03-02T13:05:00;1.13;;;0.60;;
69030;SDS011;56083;48.774;8.942;2024-03-02T13:07:26;1.63;;;0.60;;
69030;SDS011;56083;48.774;8.942;2024-03-02T13:09:55;1.88;;;0.63;;
69030;SDS011;56083;48.774;8.942;2024-03-02T13:12:22;0.75;;;0.60;;
69030;SDS011;56083;48.774;8.942;2024-03-02T13:14:49;2.95;;;1.10;;
69030;SDS011;56083;48.774;8.942;2024-03-02T13:17:17;1.02;;;0.82;;
69030;SDS011;56083;48.774;8.942;2024-03-02T13:19:43;1.45;;;0.80;;
69030;SDS011;56083;48.774;8.942;2024-03-02T13:22:09;1.08;;;0.80;;
69030;SDS011;56083;48.774;8.942;2024-03-02T13:24:35;1.30;;;0.60;;
69030;SDS011;56083;48.774;8.942;2024-03-02T13:27:01;0.70;;;0.50;;
69030;SDS011;56083;48.774;8.942;2024-03-02T13:29:29;0.90;;;0.60;;
69030;SDS011;56083;48.774;8.942;2024-03-02T13:31:55;0.90;;;0.50;;
69030;SDS011;56083;48.774;8.942;2024-03-02T13:34:22;0.68;;;0.60;;
69030;SDS011;56083;48.774;8.942;2024-03-02T13:36:48;0.98;;;0.52;;
69030;SDS011;56083;48.774;8.942;2024-03-02T13:39:15;0.57;;;0.50;;
69030;SDS011;56083;48.774;8.942;2024-03-02T13:41:41;0.80;;;0.60;;
69030;SDS011;56083;48.774;8.942;2024-03-02T13:44:09;1.13;;;0.80;;
69030;SDS011;56083;48.774;8.942;2024-03-02T13:46:36;1.17;;;0.80;;
69030;SDS011;56083;48.774;8.942;2024-03-02T13:49:02;1.95;;;0.85;;
69030;SDS011;56083;48.774;8.942;2024-03-02T13:51:29;0.88;;;0.60;;
69030;SDS011;56083;48.774;8.942;2024-03-02T13:53:55;1.52;;;0.82;;
69030;SDS011;56083;48.774;8.942;2024-03-02T13:56:21;2.92;;;0.98;;
69030;SDS011;56083;48.774;8.942;2024-03-02T13:58:47;1.35;;;0.80;;
69030;SDS011;56083;48.774;8.942;2024-03-02T14:01:14;1.25;;;0.77;;
69030;SDS011;56083;48.774;8.942;2024-03-02T14:03:40;2.70;;;0.98;;
69030;SDS011;56083;48.774;8.942;2024-03-02T14:06:07;0.80;;;0.60;;
69030;SDS011;56083;48.774;8.942;2024-03-02T14:08:33;1.60;;;0.73;;
69030;SDS011;56083;48.774;8.942;2024-03-02T14:11:01;1.77;;;1.00;;
69030;SDS011;56083;48.774;8.942;2024-03-02T14:13:27;1.33;;;0.60;;
69030;SDS011;56083;48.774;8.942;2024-03-02T14:15:54;1.92;;;0.80;;
69030;SDS011;56083;48.774;8.942;2024-03-02T14:18:20;1.55;;;0.90;;
69030;SDS011;56083;48.774;8.942;2024-03-02T14:20:49;1.30;;;1.00;;
69030;SDS011;56083;48.774;8.942;2024-03-02T14:23:17;3.50;;;1.10;;
69030;SDS011;56083;48.774;8.942;2024-03-02T14:25:45;0.88;;;0.70;;
69030;SDS011;56083;48.774;8.942;2024-03-02T14:28:11;1.35;;;0.70;;
69030;SDS011;56083;48.774;8.942;2024-03-02T14:30:37;1.00;;;0.63;;
69030;SDS011;56083;48.774;8.942;2024-03-02T14:33:04;1.40;;;0.77;;